Time;durP1;ratioP1;P1;durP2;ratioP2;P2;SDS_P1;SDS_P2;PMS_P1;PMS_P2;Temp;Humidity;BMP_temperature;BMP_pressure;BME280_temperature;BME280_humidity;BME280_pressure;Samples;Min_cycle;Max_cycle;Signal;HPM_P1;HPM_P2
2022/01/14 00:02:13;;;;;;;27.70;14.70;;;;;;;4.24;88.51;100820.75;130192;1271;108841;-75
2022/01/14 00:05:18;;;;;;;26.20;14.80;;;;;;;4.26;88.63;100823.08;130190;1271;108701;-75
2022/01/14 00:08:24;;;;;;;28.40;15.50;;;;;;;4.31;88.45;100827.34;130207;1269;108872;-75
2022/01/14 00:11:31;;;;;;;26.90;16.00;;;;;;;4.35;88.37;100826.42;130204;1270;108776;-75
2022/01/14 00:14:39;;;;;;;28.80;15.20;;;;;;;4.33;88.25;100837.45;130235;1271;108744;-76
2022/01/14 00:17:44;;;;;;;26.70;14.70;;;;;;;4.29;88.23;100830.11;130178;1269;108883;-75
2022/01/14 00:20:50;;;;;;;27.60;15.20;;;;;;;4.29;88.05;100826.98;130142;1271;108812;-76
2022/01/14 00:24:06;;;;;;;28.00;16.30;;;;;;;4.27;88.22;100825.14;130199;1271;108908;-75
2022/01/14 00:34:01;;;;;;;26.50;15.60;;;;;;;4.28;88.09;100796.70;130032;1268;108855;-77
2022/01/14 00:37:07;;;;;;;30.40;15.90;;;;;;;4.27;87.84;100795.71;130181;1271;108731;-77
2022/01/14 00:40:14;;;;;;;30.50;16.10;;;;;;;4.29;88.06;100796.65;130173;1271;108046;-78
2022/01/14 00:43:19;;;;;;;26.90;15.80;;;;;;;4.30;88.01;100796.42;130246;1268;108906;-76
2022/01/14 00:46:25;;;;;;;27.70;14.30;;;;;;;4.30;88.00;100789.38;130197;1271;108671;-77
2022/01/14 00:49:31;;;;;;;27.20;15.50;;;;;;;4.36;88.15;100783.35;130131;1270;108663;-78
2022/01/14 00:52:37;;;;;;;27.00;16.00;;;;;;;4.37;88.05;100779.63;130203;1271;109236;-76
2022/01/14 00:55:55;;;;;;;27.60;16.10;;;;;;;4.32;88.27;100792.91;130219;1270;108833;-77
2022/01/14 00:59:16;;;;;;;28.50;15.90;;;;;;;4.25;88.62;100797.11;130139;1269;108903;-78
2022/01/14 01:02:22;;;;;;;26.90;14.70;;;;;;;4.22;88.81;100794.09;130238;1271;108653;-75
2022/01/14 01:05:28;;;;;;;28.50;16.00;;;;;;;4.21;88.84;100792.09;130238;1271;108730;-76
2022/01/14 01:08:35;;;;;;;28.00;15.70;;;;;;;4.22;89.02;100792.52;130238;1271;108746;-74
2022/01/14 01:11:47;;;;;;;26.50;13.90;;;;;;;4.25;88.91;100784.41;130223;1271;108874;-76
2022/01/14 01:15:04;;;;;;;25.10;14.30;;;;;;;4.24;89.09;100786.94;130332;1270;107343;-75
2022/01/14 01:18:09;;;;;;;22.80;14.20;;;;;;;4.23;89.17;100786.15;130251;1270;108746;-75
2022/01/14 01:21:15;;;;;;;27.70;15.40;;;;;;;4.16;89.38;100792.21;130208;1271;108755;-74
2022/01/14 01:24:20;;;;;;;23.70;13.70;;;;;;;4.12;89.50;100789.63;130225;1271;108803;-75
2022/01/14 01:27:25;;;;;;;24.80;13.80;;;;;;;4.11;89.51;100781.25;130220;1271;108671;-76
2022/01/14 01:33:54;;;;;;;27.50;14.70;;;;;;;4.22;89.32;100759.98;130209;1271;107762;-78
2022/01/14 01:37:01;;;;;;;23.10;12.60;;;;;;;4.24;89.21;100751.02;130238;1271;108837;-77
2022/01/14 01:40:09;;;;;;;27.00;13.60;;;;;;;4.22;89.28;100742.33;130313;1271;108883;-78
2022/01/14 01:43:15;;;;;;;21.30;11.30;;;;;;;4.23;89.23;100741.06;130193;1271;108724;-74
2022/01/14 01:46:23;;;;;;;26.30;12.70;;;;;;;4.20;89.20;100738.27;130076;1270;108720;-75
2022/01/14 01:49:31;;;;;;;19.20;12.00;;;;;;;4.25;89.28;100727.00;130248;1271;108739;-75
2022/01/14 01:52:37;;;;;;;23.30;11.80;;;;;;;4.28;89.01;100725.73;130208;1271;108998;-75
2022/01/14 01:55:42;;;;;;;19.10;10.80;;;;;;;4.30;88.97;100717.84;130217;1271;108896;-74
2022/01/14 01:58:48;;;;;;;17.20;10.40;;;;;;;4.37;88.88;100716.91;130169;1271;109700;-75
2022/01/14 02:01:56;;;;;;;25.50;15.80;;;;;;;4.38;88.79;100718.44;130206;1271;108671;-76
2022/01/14 02:05:01;;;;;;;19.70;11.70;;;;;;;4.40;88.75;100717.59;130278;1271;108811;-77
2022/01/14 02:08:07;;;;;;;20.20;10.00;;;;;;;4.37;88.75;100715.63;130227;1271;108746;-77
2022/01/14 02:11:12;;;;;;;19.40;10.70;;;;;;;4.36;88.81;100709.38;130195;1271;108876;-77
2022/01/14 02:14:40;;;;;;;17.60;11.20;;;;;;;4.38;88.98;100711.21;130171;1271;108874;-80
2022/01/14 02:18:13;;;;;;;18.40;10.30;;;;;;;4.39;88.94;100703.17;130209;1271;108429;-76
2022/01/14 02:25:03;;;;;;;18.30;10.10;;;;;;;4.37;88.78;100690.83;130190;1271;108878;-77
2022/01/14 02:28:13;;;;;;;16.20;10.20;;;;;;;4.32;89.06;100687.09;130256;1271;108965;-77
2022/01/14 02:31:19;;;;;;;18.40;10.90;;;;;;;4.31;89.17;100679.25;130236;1271;107696;-74
2022/01/14 02:34:24;;;;;;;15.70;9.40;;;;;;;4.34;89.03;100666.53;130209;1271;108655;-76
2022/01/14 02:37:30;;;;;;;17.80;10.00;;;;;;;4.32;89.00;100657.10;130283;1271;108866;-80
2022/01/14 02:40:36;;;;;;;12.60;7.90;;;;;;;4.33;88.98;100656.17;130105;1269;107954;-81
2022/01/14 02:43:41;;;;;;;17.60;9.80;;;;;;;4.33;89.12;100656.39;130249;1271;107535;-81
2022/01/14 02:46:53;;;;;;;13.90;9.00;;;;;;;4.37;88.94;100651.02;130233;1271;109775;-81
2022/01/14 02:49:59;;;;;;;17.80;10.10;;;;;;;4.36;88.96;100650.74;130826;1271;108701;-76
2022/01/14 02:53:13;;;;;;;16.10;9.30;;;;;;;4.30;89.07;100648.67;129943;1270;108837;-76
2022/01/14 02:56:25;;;;;;;15.70;8.90;;;;;;;4.28;89.09;100636.96;130718;1271;107010;-77
2022/01/14 02:59:32;;;;;;;16.80;10.00;;;;;;;4.30;89.36;100631.92;130250;1270;107168;-81
2022/01/14 03:02:40;;;;;;;16.30;9.80;;;;;;;4.30;89.19;100629.46;130556;1271;108633;-81
2022/01/14 03:05:46;;;;;;;16.00;9.20;;;;;;;4.27;89.23;100622.25;130852;1271;109063;-78
2022/01/14 03:08:52;;;;;;;15.70;9.30;;;;;;;4.27;89.26;100617.15;130531;1271;108789;-76
2022/01/14 03:12:00;;;;;;;15.30;10.10;;;;;;;4.31;89.28;100613.71;130118;1271;107723;-77
2022/01/14 03:15:07;;;;;;;14.40;9.00;;;;;;;4.38;89.07;100616.61;130048;1269;108473;-75
2022/01/14 03:18:16;;;;;;;14.40;9.50;;;;;;;4.37;89.09;100611.90;130050;1270;108820;-76
2022/01/14 03:21:28;;;;;;;14.10;8.80;;;;;;;4.34;89.14;100605.95;130177;1271;108683;-82
2022/01/14 03:27:57;;;;;;;15.30;8.90;;;;;;;4.30;89.20;100595.64;130197;1271;108663;-76
2022/01/14 03:31:02;;;;;;;14.30;9.30;;;;;;;4.33;89.13;100601.08;130278;1271;108829;-75
2022/01/14 03:34:08;;;;;;;14.20;9.50;;;;;;;4.40;89.01;100599.56;130010;1271;108913;-75
2022/01/14 03:37:14;;;;;;;15.60;8.80;;;;;;;4.39;89.05;100588.01;130201;1271;107555;-72
2022/01/14 03:40:19;;;;;;;14.70;8.70;;;;;;;4.34;89.03;100594.65;130159;1269;108968;-75
2022/01/14 03:43:24;;;;;;;16.40;9.50;;;;;;;4.31;89.13;100591.66;130192;1271;108803;-75
2022/01/14 03:46:30;;;;;;;14.70;8.90;;;;;;;4.28;89.21;100577.81;130254;1270;108655;-79
2022/01/14 03:49:36;;;;;;;12.30;8.10;;;;;;;4.31;89.04;100573.75;130073;1270;107609;-76
2022/01/14 03:52:41;;;;;;;16.20;9.10;;;;;;;4.32;89.13;100580.36;130172;1271;108915;-76
2022/01/14 03:55:49;;;;;;;15.60;9.50;;;;;;;4.30;89.14;100594.55;130165;1270;108891;-76
2022/01/14 03:58:55;;;;;;;15.60;9.80;;;;;;;4.29;89.16;100601.00;130122;1271;108674;-76
2022/01/14 04:02:00;;;;;;;14.80;9.00;;;;;;;4.29;89.20;100602.06;130257;1270;108759;-73
2022/01/14 04:05:07;;;;;;;14.70;8.90;;;;;;;4.28;89.16;100608.43;130224;1271;108578;-77
2022/01/14 04:08:12;;;;;;;15.60;9.30;;;;;;;4.30;89.13;100618.36;131194;1270;108742;-77
2022/01/14 04:11:18;;;;;;;16.20;10.30;;;;;;;4.30;89.04;100613.09;130147;1270;108776;-76
2022/01/14 04:17:46;;;;;;;15.20;8.90;;;;;;;4.26;89.38;100588.90;130234;1270;108728;-76
2022/01/14 04:20:53;;;;;;;16.80;9.70;;;;;;;4.25;89.45;100593.68;130197;1271;108748;-76
2022/01/14 04:23:58;;;;;;;15.10;9.70;;;;;;;4.25;89.47;100589.66;130151;1270;108876;-77
2022/01/14 04:27:04;;;;;;;15.50;10.50;;;;;;;4.24;89.32;100585.10;130238;1271;108771;-74
2022/01/14 04:30:12;;;;;;;18.20;9.60;;;;;;;4.25;89.44;100585.27;130217;1269;108844;-76
2022/01/14 04:33:17;;;;;;;15.80;9.30;;;;;;;4.20;89.67;100588.77;130228;1270;107752;-74
2022/01/14 04:36:23;;;;;;;16.60;9.50;;;;;;;4.17;89.78;100581.41;130178;1270;108275;-74
2022/01/14 04:39:29;;;;;;;17.70;10.30;;;;;;;4.21;89.80;100577.06;130184;1270;108703;-76
2022/01/14 04:42:35;;;;;;;17.50;10.40;;;;;;;4.21;89.76;100574.75;130084;1270;107875;-74
2022/01/14 04:45:53;;;;;;;18.80;9.50;;;;;;;4.20;89.88;100571.28;130140;1270;108849;-76
2022/01/14 04:48:59;;;;;;;18.00;10.30;;;;;;;4.17;90.01;100574.03;130005;1270;108635;-81
2022/01/14 04:52:06;;;;;;;17.40;10.30;;;;;;;4.18;89.93;100567.25;130260;1270;108596;-75
2022/01/14 04:55:14;;;;;;;17.60;10.20;;;;;;;4.20;89.98;100561.27;130221;1270;108676;-75
2022/01/14 04:58:20;;;;;;;17.50;10.10;;;;;;;4.15;90.28;100560.93;130195;1271;108778;-75
2022/01/14 05:01:26;;;;;;;14.90;9.20;;;;;;;4.10;90.35;100551.94;130200;1271;109620;-75
2022/01/14 05:04:31;;;;;;;17.70;10.00;;;;;;;4.12;90.46;100540.88;130205;1270;108922;-74
2022/01/14 05:07:38;;;;;;;15.90;9.80;;;;;;;4.17;90.26;100529.14;130187;1270;108761;-75
2022/01/14 05:11:01;;;;;;;15.90;9.40;;;;;;;4.17;90.27;100526.60;130242;1271;108875;-74
2022/01/14 05:14:06;;;;;;;14.50;8.00;;;;;;;4.16;90.41;100528.31;130217;1268;108666;-75
2022/01/14 05:17:12;;;;;;;15.30;8.90;;;;;;;4.16;90.32;100522.82;130215;1270;109134;-77
2022/01/14 05:20:19;;;;;;;14.90;8.60;;;;;;;4.17;90.59;100523.15;130205;1271;108828;-76
2022/01/14 05:23:25;;;;;;;16.80;9.40;;;;;;;4.14;90.49;100525.23;130204;1270;109022;-74
2022/01/14 05:26:30;;;;;;;13.40;7.70;;;;;;;4.13;90.63;100532.02;130281;1270;108803;-76
2022/01/14 05:29:36;;;;;;;31.50;22.10;;;;;;;4.11;90.71;100520.15;130095;1270;108666;-77
2022/01/14 05:32:47;;;;;;;28.90;18.30;;;;;;;4.17;90.53;100511.48;130204;1269;107399;-76
2022/01/14 05:35:53;;;;;;;15.70;9.80;;;;;;;4.22;90.40;100503.17;130257;1268;108856;-77
2022/01/14 05:38:58;;;;;;;32.60;15.50;;;;;;;4.24;90.21;100506.42;130191;1271;108755;-77
2022/01/14 05:42:05;;;;;;;13.90;8.80;;;;;;;4.26;90.16;100506.13;130180;1270;108819;-76
2022/01/14 05:45:13;;;;;;;50.50;17.10;;;;;;;4.25;89.92;100498.09;129973;1270;108911;-76
2022/01/14 05:48:18;;;;;;;26.00;11.60;;;;;;;4.27;90.02;100495.14;130007;1270;108831;-77
2022/01/14 05:51:24;;;;;;;13.70;8.00;;;;;;;4.27;89.91;100496.19;130015;1270;106630;-77
2022/01/14 05:54:30;;;;;;;31.40;15.30;;;;;;;4.27;89.90;100491.77;130100;1270;108737;-78
2022/01/14 05:57:38;;;;;;;16.90;12.40;;;;;;;4.31;89.78;100477.06;130005;1270;108674;-79
2022/01/14 06:00:43;;;;;;;13.40;8.60;;;;;;;4.36;89.57;100475.46;130000;1270;109255;-75
2022/01/14 06:03:49;;;;;;;27.80;15.60;;;;;;;4.38;89.38;100463.23;130167;1269;108747;-75
2022/01/14 06:06:54;;;;;;;14.50;9.50;;;;;;;4.36;89.23;100458.21;130189;1270;108864;-77
2022/01/14 06:10:00;;;;;;;12.30;7.60;;;;;;;4.36;89.40;100449.08;130212;1270;108994;-73
2022/01/14 06:13:05;;;;;;;14.10;9.40;;;;;;;4.43;89.35;100436.94;130198;1269;108901;-75
2022/01/14 06:16:10;;;;;;;12.60;7.60;;;;;;;4.43;89.16;100444.72;130173;1269;107852;-75
2022/01/14 06:19:16;;;;;;;69.20;24.50;;;;;;;4.38;89.12;100442.07;130009;1270;108986;-76
2022/01/14 06:22:21;;;;;;;15.80;10.00;;;;;;;4.43;89.14;100439.08;130025;1270;108871;-78
2022/01/14 06:25:27;;;;;;;15.40;8.30;;;;;;;4.48;89.23;100444.88;130035;1270;107700;-76
2022/01/14 06:28:32;;;;;;;13.70;9.00;;;;;;;4.49;89.10;100449.58;130035;1270;108670;-76
2022/01/14 06:31:37;;;;;;;12.10;7.60;;;;;;;4.45;89.11;100440.84;130164;1270;108882;-76
2022/01/14 06:34:43;;;;;;;12.20;7.30;;;;;;;4.41;89.27;100430.94;130170;1271;107866;-75
2022/01/14 06:37:48;;;;;;;12.00;7.60;;;;;;;4.39;89.55;100421.02;130416;1270;108756;-84
2022/01/14 06:40:53;;;;;;;13.00;7.40;;;;;;;4.39;89.68;100410.43;130432;1269;108933;-79
2022/01/14 06:43:59;;;;;;;11.10;7.40;;;;;;;4.41;89.63;100408.58;130296;1270;109014;-80
2022/01/14 06:47:05;;;;;;;14.60;9.20;;;;;;;4.43;89.50;100404.02;130402;1270;108632;-77
2022/01/14 06:50:12;;;;;;;13.70;8.10;;;;;;;4.46;89.50;100400.79;130305;1270;108666;-91
2022/01/14 06:53:18;;;;;;;12.60;8.40;;;;;;;4.44;89.57;100391.58;130231;1270;107682;-83
2022/01/14 06:56:23;;;;;;;13.10;8.70;;;;;;;4.43;89.66;100384.06;130384;1270;108844;-83
2022/01/14 06:59:29;;;;;;;18.80;10.30;;;;;;;4.46;89.58;100384.56;130495;1270;107635;-79
2022/01/14 07:02:34;;;;;;;59.80;24.90;;;;;;;4.44;89.71;100374.49;130497;1268;107618;-78
2022/01/14 07:05:40;;;;;;;102.80;39.70;;;;;;;4.42;89.64;100374.13;130438;1270;108877;-77
2022/01/14 07:08:45;;;;;;;13.50;8.70;;;;;;;4.44;89.82;100381.00;130069;1270;109079;-78
2022/01/14 07:11:56;;;;;;;12.30;7.10;;;;;;;4.44;89.74;100358.11;129965;1270;108830;-75
2022/01/14 07:15:03;;;;;;;11.60;7.70;;;;;;;4.48;89.93;100378.30;129954;1270;108900;-77
2022/01/14 07:18:10;;;;;;;13.30;7.70;;;;;;;4.51;89.84;100377.85;129691;1270;378982;-75
2022/01/14 07:21:16;;;;;;;12.00;7.40;;;;;;;4.56;89.83;100366.80;130247;1270;108660;-75
2022/01/14 07:24:21;;;;;;;31.90;15.60;;;;;;;4.56;89.74;100375.95;129955;1270;107925;-78
2022/01/14 07:27:27;;;;;;;14.20;8.50;;;;;;;4.55;89.85;100372.14;130030;1270;108630;-77
2022/01/14 07:30:33;;;;;;;26.20;17.70;;;;;;;4.56;89.78;100365.20;130059;1270;108985;-76
2022/01/14 07:33:38;;;;;;;20.50;13.70;;;;;;;4.61;89.66;100366.77;129930;1270;108932;-74
2022/01/14 07:36:44;;;;;;;15.10;9.50;;;;;;;4.59;89.96;100362.48;130116;1270;108843;-74
2022/01/14 07:39:49;;;;;;;18.40;12.20;;;;;;;4.57;89.97;100371.50;129998;1270;108811;-77
2022/01/14 07:42:55;;;;;;;24.00;14.90;;;;;;;4.61;90.00;100354.48;129963;1270;108936;-76
2022/01/14 07:46:00;;;;;;;25.70;14.40;;;;;;;4.64;89.95;100358.82;130035;1270;108877;-76
2022/01/14 07:49:05;;;;;;;22.80;17.10;;;;;;;4.63;90.06;100365.92;130011;1270;108616;-76
2022/01/14 07:52:11;;;;;;;30.70;15.10;;;;;;;4.62;90.25;100371.27;130102;1270;108723;-74
2022/01/14 07:55:17;;;;;;;35.40;23.70;;;;;;;4.66;90.06;100367.64;130862;1271;108805;-76
2022/01/14 07:58:23;;;;;;;12.20;7.90;;;;;;;4.72;89.91;100368.39;130388;1269;108623;-75
2022/01/14 08:01:29;;;;;;;20.10;13.60;;;;;;;4.78;89.82;100358.64;130324;1269;108860;-77
2022/01/14 08:04:37;;;;;;;119.90;61.90;;;;;;;4.79;89.80;100368.96;130227;1270;109121;-76
2022/01/14 08:07:46;;;;;;;102.90;55.10;;;;;;;4.82;89.93;100353.95;130308;1269;108192;-76
2022/01/14 08:10:51;;;;;;;44.60;23.10;;;;;;;4.89;89.80;100357.30;130232;1269;107273;-78
2022/01/14 08:13:57;;;;;;;38.60;20.80;;;;;;;4.91;89.72;100361.73;130264;1270;106156;-76
2022/01/14 08:17:02;;;;;;;58.90;28.10;;;;;;;4.92;89.54;100361.34;130409;1269;108222;-76
2022/01/14 08:20:09;;;;;;;27.30;14.20;;;;;;;4.89;89.52;100365.26;130355;1271;107566;-76
2022/01/14 08:23:16;;;;;;;26.20;14.80;;;;;;;4.89;89.66;100362.05;130175;1270;109271;-78
2022/01/14 08:26:21;;;;;;;47.70;25.90;;;;;;;4.92;89.82;100344.56;130066;1270;108834;-76
2022/01/14 08:29:28;;;;;;;62.30;29.90;;;;;;;4.94;89.78;100347.63;130263;1269;108636;-75
2022/01/14 08:32:33;;;;;;;54.40;21.70;;;;;;;4.94;89.96;100335.80;130277;1269;108645;-75
2022/01/14 08:35:39;;;;;;;31.90;17.60;;;;;;;5.02;89.92;100329.86;130345;1270;109496;-78
2022/01/14 08:38:44;;;;;;;55.80;30.10;;;;;;;5.06;89.85;100340.19;130318;1270;108957;-78
2022/01/14 08:41:50;;;;;;;40.10;23.90;;;;;;;5.04;89.80;100343.36;130371;1269;108849;-76
2022/01/14 08:44:56;;;;;;;35.20;23.80;;;;;;;5.06;89.89;100317.46;130290;1270;108588;-75
2022/01/14 08:48:01;;;;;;;10.00;6.70;;;;;;;5.09;89.99;100307.70;130320;1270;108954;-77
2022/01/14 08:51:07;;;;;;;10.00;7.30;;;;;;;5.08;90.03;100306.70;130259;1270;108907;-77
2022/01/14 08:54:13;;;;;;;28.30;24.00;;;;;;;5.04;89.94;100314.59;130343;1269;108766;-76
2022/01/14 08:57:19;;;;;;;12.50;7.80;;;;;;;5.09;90.14;100290.45;130306;1270;109275;-76
2022/01/14 09:00:27;;;;;;;11.80;7.10;;;;;;;5.15;89.86;100296.50;130330;1270;108808;-77
2022/01/14 09:03:32;;;;;;;10.60;7.10;;;;;;;5.20;89.74;100312.81;130278;1270;107510;-76
2022/01/14 09:06:37;;;;;;;24.00;15.90;;;;;;;5.19;89.78;100308.73;130237;1270;108861;-75
2022/01/14 09:09:43;;;;;;;27.20;16.60;;;;;;;5.24;89.59;100309.20;130169;1270;108929;-75
2022/01/14 09:12:49;;;;;;;48.00;25.40;;;;;;;5.25;89.67;100298.52;130455;1270;108948;-75
2022/01/14 09:15:54;;;;;;;51.10;31.60;;;;;;;5.22;89.46;100293.10;130114;1271;108831;-74
2022/01/14 09:19:00;;;;;;;48.00;29.40;;;;;;;5.23;89.70;100284.39;130443;1269;108790;-75
2022/01/14 09:22:06;;;;;;;30.40;19.80;;;;;;;5.23;89.64;100283.55;130197;1270;106816;-77
2022/01/14 09:25:12;;;;;;;19.20;13.60;;;;;;;5.24;89.85;100290.20;130210;1270;108936;-76
2022/01/14 09:28:18;;;;;;;12.00;8.20;;;;;;;5.28;89.74;100306.76;130233;1270;108879;-77
2022/01/14 09:31:24;;;;;;;51.10;29.60;;;;;;;5.28;89.74;100298.48;130313;1270;108748;-76
2022/01/14 09:34:29;;;;;;;75.10;36.20;;;;;;;5.23;90.01;100294.66;130268;1270;108975;-76
2022/01/14 09:37:35;;;;;;;14.90;9.20;;;;;;;5.23;90.06;100308.76;130334;1270;107563;-76
2022/01/14 09:40:45;;;;;;;24.60;14.80;;;;;;;5.24;90.13;100313.41;130731;1270;108690;-77
2022/01/14 09:43:50;;;;;;;9.40;6.70;;;;;;;5.23;90.24;100303.98;130043;1270;108504;-77
2022/01/14 09:46:56;;;;;;;15.00;7.80;;;;;;;5.21;90.31;100307.13;130023;1270;107270;-76
2022/01/14 09:50:01;;;;;;;12.70;7.50;;;;;;;5.26;90.33;100292.84;129954;1270;108752;-77
2022/01/14 09:53:14;;;;;;;22.30;11.00;;;;;;;5.33;90.19;100288.55;130115;1270;108550;-76
2022/01/14 09:56:24;;;;;;;10.90;6.80;;;;;;;5.37;90.11;100296.59;130792;1269;108770;-79
2022/01/14 09:59:29;;;;;;;11.40;7.30;;;;;;;5.33;90.14;100292.64;130554;1270;108739;-78
2022/01/14 10:02:37;;;;;;;11.40;7.20;;;;;;;5.33;90.23;100277.60;130464;1270;108580;-77
2022/01/14 10:05:44;;;;;;;50.80;26.10;;;;;;;5.40;90.36;100261.95;130383;1270;108729;-78
2022/01/14 10:09:07;;;;;;;11.70;7.40;;;;;;;5.44;90.04;100269.16;131480;1270;108082;-76
2022/01/14 10:12:13;;;;;;;;;;;;;;;5.45;90.00;100265.27;130446;1270;108741;-75
2022/01/14 10:15:18;;;;;;;36.70;20.00;;;;;;;5.51;89.95;100263.53;130186;1270;108593;-76
2022/01/14 10:18:25;;;;;;;15.60;9.70;;;;;;;5.56;89.98;100263.17;130377;1271;107860;-77
2022/01/14 10:21:39;;;;;;;21.40;13.30;;;;;;;5.56;89.71;100274.13;130767;1269;108970;-78
2022/01/14 10:24:56;;;;;;;93.00;55.80;;;;;;;5.54;89.78;100264.88;130476;1270;108471;-78
2022/01/14 10:28:01;;;;;;;16.50;9.40;;;;;;;5.58;90.05;100255.05;130332;1271;108760;-78
2022/01/14 10:31:07;;;;;;;22.70;15.40;;;;;;;5.60;89.96;100253.16;130937;1270;107756;-78
2022/01/14 10:34:14;;;;;;;22.60;14.10;;;;;;;5.61;90.02;100256.38;130255;1270;108615;-79
2022/01/14 10:37:19;;;;;;;24.00;15.40;;;;;;;5.66;90.17;100254.98;130285;1270;108712;-78
2022/01/14 10:40:29;;;;;;;13.70;8.40;;;;;;;5.68;90.05;100258.34;130267;1270;109221;-78
2022/01/14 10:43:36;;;;;;;19.90;13.10;;;;;;;5.65;89.94;100247.27;130176;1270;108950;-75
2022/01/14 10:46:41;;;;;;;38.60;21.20;;;;;;;5.66;90.09;100238.22;130436;1271;108729;-78
2022/01/14 10:49:49;;;;;;;58.80;30.60;;;;;;;5.64;89.98;100242.90;130174;1270;108906;-78
2022/01/14 10:52:55;;;;;;;13.40;8.70;;;;;;;5.68;89.84;100230.95;130284;1270;108025;-77
2022/01/14 10:56:04;;;;;;;18.40;11.40;;;;;;;5.67;89.83;100235.84;130300;1270;109676;-79
2022/01/14 10:59:10;;;;;;;12.50;7.80;;;;;;;5.71;89.94;100226.64;130201;1270;108705;-77
2022/01/14 11:02:36;;;;;;;50.30;30.70;;;;;;;5.78;89.72;100214.08;130318;1270;108850;-77
2022/01/14 11:05:42;;;;;;;18.50;12.10;;;;;;;5.86;89.45;100208.53;130470;1270;108713;-79
2022/01/14 11:08:49;;;;;;;26.40;17.90;;;;;;;5.81;89.23;100210.66;130726;1270;110034;-78
2022/01/14 11:11:55;;;;;;;16.90;11.40;;;;;;;5.76;89.15;100219.94;130880;1270;109010;-80
2022/01/14 11:15:01;;;;;;;18.30;12.60;;;;;;;5.74;89.43;100207.71;130181;1270;109125;-76
2022/01/14 11:18:07;;;;;;;9.10;6.10;;;;;;;5.79;89.42;100217.93;130031;1270;108689;-77
2022/01/14 11:24:39;;;;;;;8.80;5.90;;;;;;;5.65;89.41;100212.68;130179;1269;108802;-74
2022/01/14 11:27:50;;;;;;;14.70;9.00;;;;;;;5.64;89.82;100212.58;130230;1270;108705;-77
2022/01/14 11:30:56;;;;;;;15.10;10.20;;;;;;;5.61;89.52;100218.44;130184;1270;108839;-73
2022/01/14 11:34:04;;;;;;;11.70;7.40;;;;;;;5.61;89.69;100223.80;130210;1270;108955;-74
2022/01/14 11:37:13;;;;;;;11.00;7.90;;;;;;;5.59;89.64;100213.70;130024;1269;108696;-76
2022/01/14 11:40:20;;;;;;;20.30;11.90;;;;;;;5.64;89.72;100189.99;130282;1270;108963;-75
2022/01/14 11:43:46;;;;;;;41.60;23.30;;;;;;;5.58;89.56;100211.80;130324;1269;108688;-77
2022/01/14 11:47:00;;;;;;;36.90;20.40;;;;;;;5.50;89.68;100212.97;130206;1270;109151;-77
2022/01/14 11:50:09;;;;;;;52.70;30.10;;;;;;;5.48;89.64;100208.52;130166;1270;108815;-76
2022/01/14 11:53:46;;;;;;;23.00;15.70;;;;;;;5.48;89.83;100187.15;130271;1269;108690;-78
2022/01/14 11:56:51;;;;;;;17.10;10.50;;;;;;;5.56;89.63;100202.27;129529;1276;108774;-80
2022/01/14 11:59:57;;;;;;;11.80;7.60;;;;;;;5.55;89.47;100211.70;130326;1269;108660;-81
2022/01/14 12:03:28;;;;;;;10.10;6.60;;;;;;;5.51;89.57;100215.52;130208;1270;108137;-81
2022/01/14 12:07:01;;;;;;;13.20;8.80;;;;;;;5.47;89.97;100211.06;130398;1270;108608;-78
2022/01/14 12:10:09;;;;;;;11.60;7.80;;;;;;;5.38;90.03;100219.19;130248;1270;108919;-79
2022/01/14 12:13:28;;;;;;;15.30;10.30;;;;;;;5.31;90.26;100222.20;130165;1270;108742;-79
2022/01/14 12:16:46;;;;;;;24.00;13.70;;;;;;;5.36;90.26;100219.70;130214;1269;108756;-80
2022/01/14 12:19:56;;;;;;;46.60;23.80;;;;;;;5.38;90.16;100217.79;130157;1269;108640;-79
2022/01/14 12:23:11;;;;;;;100.00;44.70;;;;;;;5.35;90.12;100215.55;130327;1269;107520;-78
2022/01/14 12:26:18;;;;;;;34.80;20.70;;;;;;;5.36;90.34;100216.19;130464;1271;108672;-78
2022/01/14 12:29:34;;;;;;;23.00;14.30;;;;;;;5.33;90.61;100213.98;130233;1270;108863;-79
2022/01/14 12:32:42;;;;;;;21.20;15.40;;;;;;;5.33;90.57;100218.16;130347;1269;108874;-79
2022/01/14 12:35:47;;;;;;;16.40;12.40;;;;;;;5.40;90.30;100210.92;130637;1271;108706;-78
2022/01/14 12:38:53;;;;;;;14.60;10.40;;;;;;;5.44;90.37;100213.30;130544;1270;108697;-78
2022/01/14 12:42:02;;;;;;;17.10;13.20;;;;;;;5.44;90.39;100210.41;130317;1271;108265;-79
2022/01/14 12:45:11;;;;;;;13.00;9.10;;;;;;;5.43;90.54;100220.39;130334;1271;107753;-79
2022/01/14 12:51:59;;;;;;;;;;;;;;;5.45;90.76;100205.27;130308;1270;108773;-79
2022/01/14 12:55:08;;;;;;;10.00;6.70;;;;;;;5.47;90.52;100199.42;130214;1270;109058;-78
2022/01/14 12:58:15;;;;;;;11.70;8.10;;;;;;;5.52;90.39;100195.33;130250;1270;108821;-78
2022/01/14 13:01:24;;;;;;;17.20;10.90;;;;;;;5.57;90.27;100189.11;130205;1270;107645;-78
2022/01/14 13:04:30;;;;;;;50.60;28.00;;;;;;;5.62;90.20;100194.88;130155;1270;108774;-79
2022/01/14 13:07:37;;;;;;;10.00;7.50;;;;;;;5.65;90.00;100185.52;130178;1270;108633;-76
2022/01/14 13:10:48;;;;;;;11.60;8.70;;;;;;;5.66;90.01;100196.23;130341;1270;108735;-77
2022/01/14 13:14:05;;;;;;;11.00;7.20;;;;;;;5.66;90.07;100197.61;130234;1270;108737;-77
2022/01/14 13:17:15;;;;;;;10.10;7.30;;;;;;;5.67;89.90;100198.77;130215;1270;108752;-76
2022/01/14 13:20:22;;;;;;;13.20;8.50;;;;;;;5.71;89.86;100200.38;130058;1270;109002;-76
2022/01/14 13:23:27;;;;;;;14.60;8.80;;;;;;;5.73;89.94;100191.02;130393;1270;108875;-75
2022/01/14 13:26:33;;;;;;;11.30;7.40;;;;;;;5.69;89.51;100194.84;130183;1270;108812;-78
2022/01/14 13:29:43;;;;;;;41.80;29.50;;;;;;;5.64;89.46;100193.69;130263;1270;107505;-77
2022/01/14 13:32:51;;;;;;;16.00;10.10;;;;;;;5.69;89.53;100195.09;131407;1270;108943;-76
2022/01/14 13:35:59;;;;;;;20.90;14.90;;;;;;;5.71;89.36;100196.47;130305;1270;108782;-76
2022/01/14 13:39:11;;;;;;;55.70;33.40;;;;;;;5.71;89.32;100202.85;130357;1270;108904;-79
2022/01/14 13:42:25;;;;;;;;;;;;;;;5.71;89.37;100189.62;130166;1270;108700;-76
2022/01/14 13:45:31;;;;;;;11.70;8.70;;;;;;;5.74;89.44;100185.63;130231;1270;107756;-75
2022/01/14 13:48:45;;;;;;;16.80;11.80;;;;;;;5.79;89.54;100188.40;130326;1270;108830;-78
2022/01/14 13:52:10;;;;;;;12.80;9.40;;;;;;;5.83;89.17;100204.52;130182;1270;109264;-79
2022/01/14 13:55:29;;;;;;;12.00;8.00;;;;;;;5.80;89.19;100193.25;131167;1270;108038;-78
2022/01/14 13:58:36;;;;;;;13.70;9.70;;;;;;;5.77;88.98;100192.09;130649;1270;108656;-78
2022/01/14 14:01:57;;;;;;;13.40;9.60;;;;;;;5.72;88.88;100209.80;130428;1270;108922;-77
2022/01/14 14:05:03;;;;;;;33.20;20.20;;;;;;;5.72;89.20;100199.80;130181;1270;108858;-79
2022/01/14 14:08:17;;;;;;;17.30;11.10;;;;;;;5.76;88.95;100211.40;130060;1270;107811;-75
2022/01/14 14:18:42;;;;;;;16.70;9.80;;;;;;;5.72;88.55;100213.15;129459;1277;108184;-78
2022/01/14 14:22:05;;;;;;;15.30;11.10;;;;;;;5.72;88.63;100219.20;130111;1270;107524;-79
2022/01/14 14:25:15;;;;;;;11.60;7.90;;;;;;;5.68;88.48;100226.15;130155;1269;108881;-76
2022/01/14 14:28:28;;;;;;;11.60;7.80;;;;;;;5.68;88.56;100229.52;130216;1269;108832;-78
2022/01/14 14:31:34;;;;;;;11.80;8.20;;;;;;;5.68;88.70;100245.96;130376;1270;107374;-79
2022/01/14 14:34:40;;;;;;;26.70;17.00;;;;;;;5.62;88.25;100252.25;130658;1270;108816;-77
2022/01/14 14:37:49;;;;;;;14.40;8.60;;;;;;;5.58;88.51;100249.38;130321;1269;108832;-77
2022/01/14 14:40:59;;;;;;;39.80;23.90;;;;;;;5.55;88.17;100252.47;130276;1269;109014;-77
2022/01/14 14:44:05;;;;;;;15.50;9.00;;;;;;;5.56;88.27;100257.69;130641;1270;107708;-79